ZDV Airport - KDEN

Denver International

Live Information

KDEN 191053Z 08009KT 10SM OVC015 03/01 A2997 RMK AO2 SLP122 T00280006

The airport is in MVFR flying conditions

Charts

Live Pilots

Departures
Callsign Pilot Name Aircraft Type Arrival Filed Cruise Altitude Ground Speed Flight State
UAL2249A Tyler Heckman A320/L KPHX 36000 36098 404 Departing

Arrivals
Callsign Pilot Name Aircraft Type Departure Filed Cruise Altitude Ground Speed Flight State
CAA534 Michael Hamrick KTUL H/B77W/L KTPA FL360 22699 365 Arriving